sensor_id;sensor_type;location;lat;lon;timestamp;pressure;altitude;pressure_sealevel;temperature;humidity
53940;BME280;39850;43.324;21.916;2022-07-23T00:00:36;992.0;;;21.7;56.0
53940;BME280;39850;43.324;21.916;2022-07-23T00:05:13;992.0;;;21.7;56.0
53940;BME280;39850;43.324;21.916;2022-07-23T00:09:50;992.0;;;21.7;56.0
53940;BME280;39850;43.324;21.916;2022-07-23T00:14:26;992.0;;;21.7;56.0
53940;BME280;39850;43.324;21.916;2022-07-23T00:51:35;993.0;;;21.4;59.0
53940;BME280;39850;43.324;21.916;2022-07-23T00:56:13;993.0;;;21.4;59.0
53940;BME280;39850;43.324;21.916;2022-07-23T01:00:50;993.0;;;21.1;60.0
53940;BME280;39850;43.324;21.916;2022-07-23T01:05:27;993.0;;;21.1;60.0
53940;BME280;39850;43.324;21.916;2022-07-23T01:10:09;993.0;;;20.9;61.0
53940;BME280;39850;43.324;21.916;2022-07-23T01:14:54;993.0;;;20.9;61.0
53940;BME280;39850;43.324;21.916;2022-07-23T01:19:31;993.0;;;20.8;61.0
53940;BME280;39850;43.324;21.916;2022-07-23T01:24:12;993.0;;;20.8;61.0
53940;BME280;39850;43.324;21.916;2022-07-23T01:28:50;993.0;;;20.9;61.0
53940;BME280;39850;43.324;21.916;2022-07-23T01:33:27;993.0;;;20.9;61.0
53940;BME280;39850;43.324;21.916;2022-07-23T02:10:29;993.0;;;19.8;64.0
53940;BME280;39850;43.324;21.916;2022-07-23T02:15:10;993.0;;;19.8;64.0
53940;BME280;39850;43.324;21.916;2022-07-23T02:19:47;993.0;;;19.8;64.0
53940;BME280;39850;43.324;21.916;2022-07-23T02:24:24;993.0;;;19.8;64.0
53940;BME280;39850;43.324;21.916;2022-07-23T02:29:03;993.0;;;19.8;64.0
53940;BME280;39850;43.324;21.916;2022-07-23T02:33:41;993.0;;;19.8;64.0
53940;BME280;39850;43.324;21.916;2022-07-23T02:38:17;993.0;;;19.9;65.0
53940;BME280;39850;43.324;21.916;2022-07-23T02:42:54;993.0;;;19.9;65.0
53940;BME280;39850;43.324;21.916;2022-07-23T02:47:31;993.0;;;19.9;65.0
53940;BME280;39850;43.324;21.916;2022-07-23T02:52:08;993.0;;;20.0;66.0
53940;BME280;39850;43.324;21.916;2022-07-23T02:56:45;993.0;;;20.0;66.0
53940;BME280;39850;43.324;21.916;2022-07-23T03:28:59;993.0;;;19.8;65.0
53940;BME280;39850;43.324;21.916;2022-07-23T03:33:35;993.0;;;19.8;65.0
53940;BME280;39850;43.324;21.916;2022-07-23T03:38:15;993.0;;;19.9;65.0
53940;BME280;39850;43.324;21.916;2022-07-23T03:42:51;993.0;;;19.9;65.0
53940;BME280;39850;43.324;21.916;2022-07-23T03:47:28;993.0;;;19.9;65.0
53940;BME280;39850;43.324;21.916;2022-07-23T03:52:06;993.0;;;19.8;65.0
53940;BME280;39850;43.324;21.916;2022-07-23T03:56:43;993.0;;;19.8;65.0
53940;BME280;39850;43.324;21.916;2022-07-23T04:01:20;993.0;;;19.9;65.0
53940;BME280;39850;43.324;21.916;2022-07-23T04:05:57;993.0;;;19.9;65.0
53940;BME280;39850;43.324;21.916;2022-07-23T04:10:34;993.0;;;19.8;64.0
53940;BME280;39850;43.324;21.916;2022-07-23T04:15:11;993.0;;;19.8;64.0
53940;BME280;39850;43.324;21.916;2022-07-23T04:52:10;994.0;;;22.2;58.0
53940;BME280;39850;43.324;21.916;2022-07-23T04:56:47;994.0;;;22.2;58.0
53940;BME280;39850;43.324;21.916;2022-07-23T05:01:24;994.0;;;22.9;56.0
53940;BME280;39850;43.324;21.916;2022-07-23T05:06:01;994.0;;;22.9;56.0
53940;BME280;39850;43.324;21.916;2022-07-23T05:10:37;994.0;;;23.6;54.0
53940;BME280;39850;43.324;21.916;2022-07-23T05:15:15;994.0;;;23.6;54.0
53940;BME280;39850;43.324;21.916;2022-07-23T05:19:52;994.0;;;23.6;54.0
53940;BME280;39850;43.324;21.916;2022-07-23T05:24:28;994.0;;;23.6;54.0
53940;BME280;39850;43.324;21.916;2022-07-23T05:29:05;994.0;;;23.6;54.0
53940;BME280;39850;43.324;21.916;2022-07-23T05:33:42;994.0;;;23.6;54.0
53940;BME280;39850;43.324;21.916;2022-07-23T05:38:18;994.0;;;23.6;54.0
53940;BME280;39850;43.324;21.916;2022-07-23T06:10:47;994.0;;;27.1;44.0
53940;BME280;39850;43.324;21.916;2022-07-23T06:15:24;994.0;;;27.1;44.0
53940;BME280;39850;43.324;21.916;2022-07-23T06:20:01;994.0;;;27.2;43.0
53940;BME280;39850;43.324;21.916;2022-07-23T06:24:38;994.0;;;27.2;43.0
53940;BME280;39850;43.324;21.916;2022-07-23T06:29:14;994.0;;;27.2;42.0
53940;BME280;39850;43.324;21.916;2022-07-23T06:33:51;994.0;;;27.2;42.0
53940;BME280;39850;43.324;21.916;2022-07-23T06:38:29;994.0;;;27.2;42.0
53940;BME280;39850;43.324;21.916;2022-07-23T06:43:06;994.0;;;27.4;42.0
53940;BME280;39850;43.324;21.916;2022-07-23T06:47:42;994.0;;;27.4;42.0
53940;BME280;39850;43.324;21.916;2022-07-23T06:52:20;994.0;;;27.7;42.0
53940;BME280;39850;43.324;21.916;2022-07-23T06:56:56;994.0;;;27.7;42.0
53940;BME280;39850;43.324;21.916;2022-07-23T07:29:18;993.0;;;29.9;36.0
53940;BME280;39850;43.324;21.916;2022-07-23T07:33:56;993.0;;;29.9;36.0
53940;BME280;39850;43.324;21.916;2022-07-23T07:38:35;993.0;;;29.9;36.0
53940;BME280;39850;43.324;21.916;2022-07-23T07:43:12;993.0;;;29.9;36.0
53940;BME280;39850;43.324;21.916;2022-07-23T07:47:52;993.0;;;29.9;36.0
53940;BME280;39850;43.324;21.916;2022-07-23T07:52:29;993.0;;;29.9;36.0
53940;BME280;39850;43.324;21.916;2022-07-23T07:57:05;993.0;;;29.9;36.0
53940;BME280;39850;43.324;21.916;2022-07-23T08:01:43;993.0;;;30.1;35.0
53940;BME280;39850;43.324;21.916;2022-07-23T08:06:19;993.0;;;30.1;35.0
53940;BME280;39850;43.324;21.916;2022-07-23T08:10:56;993.0;;;30.3;34.0
53940;BME280;39850;43.324;21.916;2022-07-23T08:15:33;993.0;;;30.3;34.0
53940;BME280;39850;43.324;21.916;2022-07-23T08:52:55;993.0;;;31.9;33.0
53940;BME280;39850;43.324;21.916;2022-07-23T08:57:32;993.0;;;31.9;33.0
53940;BME280;39850;43.324;21.916;2022-07-23T09:02:09;992.0;;;31.9;32.0
53940;BME280;39850;43.324;21.916;2022-07-23T09:06:46;992.0;;;31.9;32.0
53940;BME280;39850;43.324;21.916;2022-07-23T09:11:23;992.0;;;31.9;33.0
53940;BME280;39850;43.324;21.916;2022-07-23T09:16:11;992.0;;;31.9;33.0
53940;BME280;39850;43.324;21.916;2022-07-23T09:21:26;992.0;;;31.9;33.0
53940;BME280;39850;43.324;21.916;2022-07-23T09:26:33;992.0;;;31.9;33.0
53940;BME280;39850;43.324;21.916;2022-07-23T09:31:16;992.0;;;31.9;33.0
53940;BME280;39850;43.324;21.916;2022-07-23T09:35:56;992.0;;;31.9;33.0
53940;BME280;39850;43.324;21.916;2022-07-23T10:14:12;992.0;;;31.9;34.0
53940;BME280;39850;43.324;21.916;2022-07-23T10:18:51;992.0;;;31.9;34.0
53940;BME280;39850;43.324;21.916;2022-07-23T10:24:23;992.0;;;31.9;34.0
53940;BME280;39850;43.324;21.916;2022-07-23T10:29:52;992.0;;;31.9;34.0
53940;BME280;39850;43.324;21.916;2022-07-23T10:35:15;992.0;;;31.9;34.0
53940;BME280;39850;43.324;21.916;2022-07-23T10:40:18;992.0;;;31.8;34.0
53940;BME280;39850;43.324;21.916;2022-07-23T10:44:58;992.0;;;31.8;34.0
53940;BME280;39850;43.324;21.916;2022-07-23T10:49:36;991.0;;;31.7;34.0
53940;BME280;39850;43.324;21.916;2022-07-23T10:54:22;991.0;;;31.7;34.0
53940;BME280;39850;43.324;21.916;2022-07-23T10:59:05;991.0;;;31.7;34.0
53940;BME280;39850;43.324;21.916;2022-07-23T11:33:23;991.0;;;32.8;26.0
53940;BME280;39850;43.324;21.916;2022-07-23T11:38:22;991.0;;;32.8;26.0
53940;BME280;39850;43.324;21.916;2022-07-23T11:43:10;991.0;;;32.8;25.0
53940;BME280;39850;43.324;21.916;2022-07-23T11:47:47;991.0;;;32.8;25.0
53940;BME280;39850;43.324;21.916;2022-07-23T11:52:29;991.0;;;32.8;24.0
53940;BME280;39850;43.324;21.916;2022-07-23T11:57:07;991.0;;;32.8;24.0
53940;BME280;39850;43.324;21.916;2022-07-23T12:02:03;990.0;;;32.8;24.0
53940;BME280;39850;43.324;21.916;2022-07-23T12:06:43;990.0;;;32.8;24.0
53940;BME280;39850;43.324;21.916;2022-07-23T12:11:20;990.0;;;32.8;24.0
53940;BME280;39850;43.324;21.916;2022-07-23T12:15:58;990.0;;;32.8;24.0
53940;BME280;39850;43.324;21.916;2022-07-23T12:51:06;990.0;;;33.4;16.0
53940;BME280;39850;43.324;21.916;2022-07-23T12:56:09;990.0;;;33.4;16.0
53940;BME280;39850;43.324;21.916;2022-07-23T13:01:06;990.0;;;33.0;16.0
53940;BME280;39850;43.324;21.916;2022-07-23T13:05:42;990.0;;;33.0;16.0
53940;BME280;39850;43.324;21.916;2022-07-23T13:10:19;990.0;;;32.6;16.0
53940;BME280;39850;43.324;21.916;2022-07-23T13:14:55;990.0;;;32.6;16.0
53940;BME280;39850;43.324;21.916;2022-07-23T13:19:32;990.0;;;32.6;16.0
53940;BME280;39850;43.324;21.916;2022-07-23T13:24:13;990.0;;;32.6;15.0
53940;BME280;39850;43.324;21.916;2022-07-23T13:28:50;990.0;;;32.6;15.0
53940;BME280;39850;43.324;21.916;2022-07-23T13:33:27;990.0;;;32.6;15.0
53940;BME280;39850;43.324;21.916;2022-07-23T13:38:07;990.0;;;32.6;15.0
53940;BME280;39850;43.324;21.916;2022-07-23T14:10:25;989.0;;;32.8;17.0
53940;BME280;39850;43.324;21.916;2022-07-23T14:15:07;989.0;;;32.8;17.0
53940;BME280;39850;43.324;21.916;2022-07-23T14:19:44;989.0;;;32.8;17.0
53940;BME280;39850;43.324;21.916;2022-07-23T14:24:21;989.0;;;32.7;17.0
53940;BME280;39850;43.324;21.916;2022-07-23T14:28:58;989.0;;;32.7;17.0
53940;BME280;39850;43.324;21.916;2022-07-23T14:33:35;989.0;;;32.6;17.0
53940;BME280;39850;43.324;21.916;2022-07-23T14:38:12;989.0;;;32.6;17.0
53940;BME280;39850;43.324;21.916;2022-07-23T14:42:50;989.0;;;32.6;17.0
53940;BME280;39850;43.324;21.916;2022-07-23T14:47:27;989.0;;;32.6;17.0
53940;BME280;39850;43.324;21.916;2022-07-23T14:52:07;989.0;;;32.6;17.0
53940;BME280;39850;43.324;21.916;2022-07-23T14:56:44;989.0;;;32.6;17.0
53940;BME280;39850;43.324;21.916;2022-07-23T15:33:46;988.0;;;32.6;17.0
53940;BME280;39850;43.324;21.916;2022-07-23T15:38:26;988.0;;;32.6;17.0
53940;BME280;39850;43.324;21.916;2022-07-23T15:43:03;988.0;;;32.6;17.0
53940;BME280;39850;43.324;21.916;2022-07-23T15:47:42;988.0;;;32.6;17.0
53940;BME280;39850;43.324;21.916;2022-07-23T15:52:20;988.0;;;32.6;18.0
53940;BME280;39850;43.324;21.916;2022-07-23T15:56:57;988.0;;;32.6;18.0
53940;BME280;39850;43.324;21.916;2022-07-23T16:01:34;988.0;;;32.6;18.0
53940;BME280;39850;43.324;21.916;2022-07-23T16:06:12;988.0;;;32.6;18.0
53940;BME280;39850;43.324;21.916;2022-07-23T16:10:49;988.0;;;32.6;19.0
53940;BME280;39850;43.324;21.916;2022-07-23T16:15:26;988.0;;;32.6;19.0
53940;BME280;39850;43.324;21.916;2022-07-23T16:20:10;988.0;;;32.6;19.0
53940;BME280;39850;43.324;21.916;2022-07-23T16:52:29;988.0;;;32.8;18.0
53940;BME280;39850;43.324;21.916;2022-07-23T16:57:07;988.0;;;32.8;18.0
53940;BME280;39850;43.324;21.916;2022-07-23T17:01:43;988.0;;;32.2;19.0
53940;BME280;39850;43.324;21.916;2022-07-23T17:06:20;988.0;;;32.2;19.0
53940;BME280;39850;43.324;21.916;2022-07-23T17:10:57;988.0;;;31.7;19.0
53940;BME280;39850;43.324;21.916;2022-07-23T17:15:34;988.0;;;31.7;19.0
53940;BME280;39850;43.324;21.916;2022-07-23T17:20:13;988.0;;;31.7;19.0
53940;BME280;39850;43.324;21.916;2022-07-23T17:24:53;988.0;;;31.7;19.0
53940;BME280;39850;43.324;21.916;2022-07-23T17:29:31;988.0;;;31.7;19.0
53940;BME280;39850;43.324;21.916;2022-07-23T17:34:08;988.0;;;31.7;19.0
53940;BME280;39850;43.324;21.916;2022-07-23T17:38:47;988.0;;;31.7;19.0
53940;BME280;39850;43.324;21.916;2022-07-23T18:11:29;988.0;;;31.0;27.0
53940;BME280;39850;43.324;21.916;2022-07-23T18:16:07;988.0;;;31.0;27.0
53940;BME280;39850;43.324;21.916;2022-07-23T18:20:47;988.0;;;31.0;27.0
53940;BME280;39850;43.324;21.916;2022-07-23T18:25:24;988.0;;;30.4;26.0
53940;BME280;39850;43.324;21.916;2022-07-23T18:30:07;988.0;;;30.4;26.0
53940;BME280;39850;43.324;21.916;2022-07-23T18:34:44;988.0;;;30.0;26.0
53940;BME280;39850;43.324;21.916;2022-07-23T18:39:22;988.0;;;30.0;26.0
53940;BME280;39850;43.324;21.916;2022-07-23T18:44:00;988.0;;;30.0;26.0
53940;BME280;39850;43.324;21.916;2022-07-23T18:48:37;988.0;;;30.0;26.0
53940;BME280;39850;43.324;21.916;2022-07-23T18:53:14;989.0;;;30.0;26.0
53940;BME280;39850;43.324;21.916;2022-07-23T18:57:50;989.0;;;30.0;26.0
53940;BME280;39850;43.324;21.916;2022-07-23T19:34:49;989.0;;;27.1;32.0
53940;BME280;39850;43.324;21.916;2022-07-23T19:39:26;989.0;;;27.1;32.0
53940;BME280;39850;43.324;21.916;2022-07-23T19:44:04;989.0;;;27.1;32.0
53940;BME280;39850;43.324;21.916;2022-07-23T19:48:40;989.0;;;27.1;32.0
53940;BME280;39850;43.324;21.916;2022-07-23T19:53:17;989.0;;;27.1;32.0
53940;BME280;39850;43.324;21.916;2022-07-23T19:57:54;989.0;;;27.1;32.0
53940;BME280;39850;43.324;21.916;2022-07-23T20:02:32;990.0;;;27.2;32.0
53940;BME280;39850;43.324;21.916;2022-07-23T20:07:10;990.0;;;27.2;32.0
53940;BME280;39850;43.324;21.916;2022-07-23T20:11:47;990.0;;;27.2;32.0
53940;BME280;39850;43.324;21.916;2022-07-23T20:16:26;990.0;;;27.2;32.0
53940;BME280;39850;43.324;21.916;2022-07-23T20:21:05;990.0;;;27.2;32.0
53940;BME280;39850;43.324;21.916;2022-07-23T20:53:28;990.0;;;25.5;34.0
53940;BME280;39850;43.324;21.916;2022-07-23T20:58:06;990.0;;;25.5;34.0
53940;BME280;39850;43.324;21.916;2022-07-23T21:02:44;990.0;;;25.5;35.0
53940;BME280;39850;43.324;21.916;2022-07-23T21:07:22;990.0;;;25.5;35.0
53940;BME280;39850;43.324;21.916;2022-07-23T21:11:59;990.0;;;25.5;36.0
53940;BME280;39850;43.324;21.916;2022-07-23T21:16:36;990.0;;;25.5;36.0
53940;BME280;39850;43.324;21.916;2022-07-23T21:21:13;990.0;;;25.5;36.0
53940;BME280;39850;43.324;21.916;2022-07-23T21:25:50;990.0;;;25.0;36.0
53940;BME280;39850;43.324;21.916;2022-07-23T21:30:26;990.0;;;25.0;36.0
53940;BME280;39850;43.324;21.916;2022-07-23T21:35:09;990.0;;;24.6;36.0
53940;BME280;39850;43.324;21.916;2022-07-23T21:39:45;990.0;;;24.6;36.0
53940;BME280;39850;43.324;21.916;2022-07-23T22:12:07;990.0;;;24.6;39.0
53940;BME280;39850;43.324;21.916;2022-07-23T22:16:44;990.0;;;24.6;39.0
53940;BME280;39850;43.324;21.916;2022-07-23T22:21:20;990.0;;;24.6;39.0
53940;BME280;39850;43.324;21.916;2022-07-23T22:25:57;990.0;;;24.6;38.0
53940;BME280;39850;43.324;21.916;2022-07-23T22:30:33;990.0;;;24.6;38.0
53940;BME280;39850;43.324;21.916;2022-07-23T22:35:12;990.0;;;24.6;39.0
53940;BME280;39850;43.324;21.916;2022-07-23T22:39:51;990.0;;;24.6;39.0
53940;BME280;39850;43.324;21.916;2022-07-23T22:44:28;990.0;;;24.6;39.0
53940;BME280;39850;43.324;21.916;2022-07-23T22:49:05;990.0;;;24.6;39.0
53940;BME280;39850;43.324;21.916;2022-07-23T22:53:42;990.0;;;24.6;40.0
53940;BME280;39850;43.324;21.916;2022-07-23T22:58:21;990.0;;;24.6;40.0
53940;BME280;39850;43.324;21.916;2022-07-23T23:35:22;990.0;;;23.7;43.0
53940;BME280;39850;43.324;21.916;2022-07-23T23:39:59;990.0;;;23.7;43.0
53940;BME280;39850;43.324;21.916;2022-07-23T23:44:36;990.0;;;23.7;42.0
53940;BME280;39850;43.324;21.916;2022-07-23T23:49:13;990.0;;;23.7;42.0
53940;BME280;39850;43.324;21.916;2022-07-23T23:53:50;990.0;;;23.7;43.0
53940;BME280;39850;43.324;21.916;2022-07-23T23:58:27;990.0;;;23.7;43.0
